Time;durP1;ratioP1;P1;durP2;ratioP2;P2;SDS_P1;SDS_P2;PMS_P1;PMS_P2;Temp;Humidity;BMP_temperature;BMP_pressure;BME280_temperature;BME280_humidity;BME280_pressure;Samples;Min_cycle;Max_cycle;Signal;HPM_P1;HPM_P2
2023/03/02 00:00:59;;;;;;;9.05;6.03;;;;;;;3.35;31.85;101941.22;5052738;28;20045;-77
2023/03/02 00:03:29;;;;;;;9.55;5.68;;;;;;;3.34;32.21;101948.44;5053200;28;20037;-77
2023/03/02 00:05:59;;;;;;;10.77;6.10;;;;;;;3.34;32.17;101952.97;5034941;28;20075;-77
2023/03/02 00:08:28;;;;;;;9.88;6.47;;;;;;;3.35;32.07;101952.03;5033539;28;20087;-77
2023/03/02 00:10:57;;;;;;;10.07;6.60;;;;;;;3.34;31.88;101942.16;5033314;28;20037;-77
2023/03/02 00:13:25;;;;;;;9.85;5.95;;;;;;;3.33;32.06;101943.09;5037876;28;20523;-77
2023/03/02 00:15:53;;;;;;;10.43;5.85;;;;;;;3.33;32.00;101946.66;5040978;28;20432;-77
2023/03/02 00:18:21;;;;;;;10.05;5.85;;;;;;;3.35;32.00;101935.78;5043770;28;20602;-77
2023/03/02 00:20:50;;;;;;;9.70;5.82;;;;;;;3.35;31.97;101936.69;5054667;28;20041;-77
2023/03/02 00:23:18;;;;;;;9.73;5.88;;;;;;;3.36;31.97;101932.16;5050076;28;20040;-77
2023/03/02 00:25:45;;;;;;;10.25;5.65;;;;;;;3.37;31.97;101929.38;5039606;28;20041;-76
2023/03/02 00:28:13;;;;;;;9.35;6.00;;;;;;;3.37;32.07;101921.28;5038421;28;20755;-77
2023/03/02 00:30:41;;;;;;;11.27;6.57;;;;;;;3.39;32.11;101932.91;5032098;28;20569;-77
2023/03/02 00:33:09;;;;;;;10.00;6.22;;;;;;;3.39;31.90;101932.91;5045444;28;20124;-77
2023/03/02 00:35:37;;;;;;;8.32;5.80;;;;;;;3.39;32.06;101932.03;5044029;28;20055;-77
2023/03/02 00:38:07;;;;;;;10.45;6.00;;;;;;;3.39;32.03;101927.50;5022182;28;20072;-77
2023/03/02 00:40:36;;;;;;;8.10;5.60;;;;;;;3.40;32.00;101936.47;5039671;28;20505;-77
2023/03/02 00:43:03;;;;;;;8.30;5.45;;;;;;;3.40;32.29;101931.06;5048328;28;20041;-77
2023/03/02 00:45:31;;;;;;;8.82;5.72;;;;;;;3.39;31.97;101926.63;5033499;28;20079;-77
2023/03/02 00:47:59;;;;;;;9.65;5.82;;;;;;;3.39;31.99;101923.91;5034315;28;20102;-77
2023/03/02 00:50:27;;;;;;;10.23;5.82;;;;;;;3.37;31.92;101921.28;5049174;28;20071;-77
2023/03/02 00:52:55;;;;;;;9.23;5.93;;;;;;;3.36;32.16;101924.03;5050859;28;20049;-77
2023/03/02 00:55:24;;;;;;;9.52;5.95;;;;;;;3.36;32.12;101919.50;5036756;28;20456;-77
2023/03/02 00:57:53;;;;;;;9.10;5.93;;;;;;;3.36;31.99;101915.91;5051783;28;20067;-77
2023/03/02 01:00:27;;;;;;;8.70;5.50;;;;;;;3.32;31.92;101922.38;5031212;28;20095;-77
2023/03/02 01:02:58;;;;;;;8.07;5.45;;;;;;;3.31;32.10;101918.81;5050982;28;20453;-77
2023/03/02 01:05:26;;;;;;;10.20;6.03;;;;;;;3.27;32.20;101902.72;5028887;28;20064;-77
2023/03/02 01:07:54;;;;;;;8.00;5.25;;;;;;;3.28;32.25;101899.97;5035902;28;20572;-77
2023/03/02 01:10:22;;;;;;;8.95;5.10;;;;;;;3.26;32.19;101904.53;5040788;28;20465;-77
2023/03/02 01:12:51;;;;;;;9.38;5.45;;;;;;;3.27;32.35;101911.72;5030574;28;20057;-77
2023/03/02 01:15:19;;;;;;;8.75;5.40;;;;;;;3.27;32.05;101897.31;5037624;28;20052;-76
2023/03/02 01:17:47;;;;;;;8.45;5.18;;;;;;;3.26;32.31;101893.72;5029320;28;20041;-77
2023/03/02 01:20:15;;;;;;;7.30;4.93;;;;;;;3.27;32.33;101891.91;5030757;28;20305;-77
2023/03/02 01:22:43;;;;;;;8.15;5.50;;;;;;;3.28;32.26;101890.97;5041449;28;20047;-77
2023/03/02 01:25:12;;;;;;;9.07;5.25;;;;;;;3.29;32.31;101887.31;5052363;28;20041;-77
2023/03/02 01:27:41;;;;;;;8.70;5.00;;;;;;;3.30;32.11;101891.78;5047066;28;20436;-77
2023/03/02 01:30:12;;;;;;;8.18;5.28;;;;;;;3.30;32.31;101881.84;5047221;28;20149;-77
2023/03/02 01:32:40;;;;;;;9.52;5.03;;;;;;;3.30;32.18;101879.13;5044665;28;20523;-77
2023/03/02 01:35:09;;;;;;;8.95;5.10;;;;;;;3.31;32.45;101878.25;5048579;28;20049;-77
2023/03/02 01:37:36;;;;;;;8.48;5.10;;;;;;;3.32;32.35;101881.78;5031906;28;20048;-77
2023/03/02 01:40:05;;;;;;;9.13;5.07;;;;;;;3.33;32.61;101875.44;5030610;28;20512;-77
2023/03/02 01:42:36;;;;;;;8.35;4.93;;;;;;;3.33;32.53;101867.31;5031810;28;20377;-77
2023/03/02 01:45:06;;;;;;;7.88;5.13;;;;;;;3.34;32.61;101866.38;5048917;28;20041;-77
2023/03/02 01:47:38;;;;;;;8.52;5.07;;;;;;;3.35;32.58;101862.75;5031440;28;20036;-77
2023/03/02 01:50:19;;;;;;;7.90;4.90;;;;;;;3.34;32.57;101861.84;5032004;28;20045;-77
2023/03/02 01:52:49;;;;;;;7.32;5.03;;;;;;;3.33;32.42;101859.19;5038162;28;20463;-77
2023/03/02 01:55:27;;;;;;;8.43;5.20;;;;;;;3.34;32.44;101859.16;5036745;28;20059;-77
2023/03/02 01:57:58;;;;;;;9.32;5.00;;;;;;;3.32;32.33;101862.84;5031468;28;20041;-77
2023/03/02 02:00:29;;;;;;;7.78;4.68;;;;;;;3.32;32.42;101865.56;5037025;28;20160;-77
2023/03/02 02:03:07;;;;;;;8.73;5.25;;;;;;;3.29;32.44;101858.44;5049794;28;20036;-77
2023/03/02 02:05:38;;;;;;;7.75;4.93;;;;;;;3.28;32.49;101862.09;5046933;28;20509;-77
2023/03/02 02:08:07;;;;;;;8.07;5.00;;;;;;;3.26;32.34;101866.66;5038382;28;20049;-77
2023/03/02 02:10:35;;;;;;;7.63;5.13;;;;;;;3.24;32.28;101859.53;5029807;28;20044;-77
2023/03/02 02:13:03;;;;;;;8.88;5.13;;;;;;;3.22;32.58;101859.63;5037218;28;20055;-77
2023/03/02 02:15:31;;;;;;;8.75;4.95;;;;;;;3.19;32.57;101850.75;5029666;28;20517;-77
2023/03/02 02:18:00;;;;;;;9.00;5.28;;;;;;;3.16;32.35;101848.16;5031628;28;20532;-77
2023/03/02 02:20:33;;;;;;;9.20;5.28;;;;;;;3.11;32.62;101856.47;5049990;28;20045;-77
2023/03/02 02:23:16;;;;;;;7.47;5.00;;;;;;;3.09;32.77;101852.06;5049111;28;20565;-77
2023/03/02 02:25:54;;;;;;;8.32;4.93;;;;;;;3.03;32.68;101858.63;5031121;28;20276;-77
2023/03/02 02:28:27;;;;;;;8.05;5.03;;;;;;;3.00;32.74;101865.03;5052604;28;20052;-77
2023/03/02 02:31:06;;;;;;;9.35;5.07;;;;;;;2.98;33.14;101860.63;5035208;28;20045;-77
2023/03/02 02:33:36;;;;;;;7.72;5.03;;;;;;;2.91;32.73;101853.69;5056032;28;20488;-77
2023/03/02 02:36:08;;;;;;;7.43;5.38;;;;;;;2.90;32.83;101854.66;5066503;28;20068;-77
2023/03/02 02:38:39;;;;;;;8.82;5.90;;;;;;;2.85;32.51;101845.81;5025265;28;20058;-77
2023/03/02 02:41:18;;;;;;;8.43;4.90;;;;;;;2.83;33.21;101854.00;5031149;28;20049;-77
2023/03/02 02:43:46;;;;;;;8.15;4.80;;;;;;;2.78;32.66;101852.41;5031734;28;20045;-77
2023/03/02 02:46:13;;;;;;;7.65;4.63;;;;;;;2.74;32.90;101846.25;5049960;28;20060;-76
2023/03/02 02:48:41;;;;;;;10.35;5.45;;;;;;;2.71;32.94;101846.38;5054821;28;20107;-77
2023/03/02 02:51:17;;;;;;;8.68;5.30;;;;;;;2.70;33.11;101843.72;5048348;28;20110;-77
2023/03/02 02:53:49;;;;;;;9.82;4.75;;;;;;;2.67;33.05;101852.84;5049378;28;20044;-77
2023/03/02 02:56:19;;;;;;;7.77;5.03;;;;;;;2.62;33.20;101839.50;5039208;28;20048;-77
2023/03/02 02:58:51;;;;;;;6.88;4.38;;;;;;;2.62;33.33;101839.50;5046287;28;20041;-77
2023/03/02 03:01:24;;;;;;;10.10;5.22;;;;;;;2.58;33.20;101845.97;5032479;28;20543;-77
2023/03/02 03:03:53;;;;;;;;;;;;;;;2.35;33.75;101854.06;5034271;28;20041;-77
2023/03/02 03:06:25;;;;;;;7.43;4.07;;;;;;;2.51;33.42;101841.72;5049150;28;19983;-77
2023/03/02 03:09:00;;;;;;;8.00;4.88;;;;;;;2.53;33.66;101842.56;5037770;28;20080;-77
2023/03/02 03:11:52;;;;;;;8.45;4.40;;;;;;;2.49;33.39;101840.06;5032375;28;20473;-77
2023/03/02 03:14:24;;;;;;;9.35;4.93;;;;;;;2.48;33.38;101839.16;5048254;28;20071;-77
2023/03/02 03:16:53;;;;;;;8.82;5.22;;;;;;;2.44;33.29;101833.94;5027461;28;20148;-77
2023/03/02 03:19:23;;;;;;;7.82;5.07;;;;;;;2.44;33.37;101831.22;5028226;28;20044;-77
2023/03/02 03:21:55;;;;;;;8.90;5.78;;;;;;;2.41;33.31;101834.06;5032571;28;20499;-77
2023/03/02 03:24:25;;;;;;;7.72;5.07;;;;;;;2.38;33.36;101829.66;5032202;28;20041;-77
2023/03/02 03:26:55;;;;;;;8.00;4.97;;;;;;;2.37;33.26;101827.88;5040176;28;20048;-77
2023/03/02 03:29:28;;;;;;;8.35;5.32;;;;;;;2.36;33.74;101830.63;5035697;28;20033;-77
2023/03/02 03:32:00;;;;;;;8.25;5.45;;;;;;;2.33;33.28;101833.47;5034092;28;20048;-77
2023/03/02 03:34:30;;;;;;;9.20;5.35;;;;;;;2.31;33.38;101824.53;5033185;28;20041;-77
2023/03/02 03:37:00;;;;;;;9.07;5.20;;;;;;;2.29;33.67;101831.81;5034256;28;20455;-77
2023/03/02 03:39:31;;;;;;;8.88;5.50;;;;;;;2.24;33.48;101826.59;5044425;28;20340;-77
2023/03/02 03:42:01;;;;;;;9.80;6.03;;;;;;;2.23;33.56;101827.53;5032889;28;20504;-77
2023/03/02 03:44:29;;;;;;;9.95;5.90;;;;;;;2.20;33.23;101827.63;5026878;28;20516;-77
2023/03/02 03:46:57;;;;;;;9.57;5.45;;;;;;;2.18;33.53;101824.09;5033957;28;20057;-77
2023/03/02 03:49:26;;;;;;;8.32;5.40;;;;;;;2.17;33.54;101835.84;5029040;28;20123;-77
2023/03/02 03:51:55;;;;;;;9.35;5.53;;;;;;;2.13;33.45;101824.28;5033538;28;20055;-77
2023/03/02 03:54:23;;;;;;;10.25;5.50;;;;;;;2.13;33.71;101835.09;5031342;28;20052;-77
2023/03/02 03:56:51;;;;;;;10.35;5.18;;;;;;;2.13;33.50;101839.59;5051539;28;20143;-77
2023/03/02 03:59:22;;;;;;;9.23;5.20;;;;;;;2.13;34.12;101836.91;5046909;28;20033;-76
2023/03/02 04:01:56;;;;;;;8.55;5.28;;;;;;;2.10;33.76;101837.88;5036525;28;20115;-77
2023/03/02 04:04:29;;;;;;;8.88;5.47;;;;;;;2.08;33.62;101831.66;5057488;28;20124;-77
2023/03/02 04:06:58;;;;;;;7.93;4.90;;;;;;;2.08;33.71;101841.59;5030370;28;20111;-76
2023/03/02 04:09:26;;;;;;;8.10;5.00;;;;;;;2.08;33.92;101841.59;5030525;28;20132;-77
2023/03/02 04:11:57;;;;;;;8.98;5.20;;;;;;;2.08;33.81;101839.75;5032819;28;20057;-77
2023/03/02 04:14:27;;;;;;;9.13;5.20;;;;;;;2.06;33.94;101836.25;5043100;28;20520;-77
2023/03/02 04:16:56;;;;;;;8.48;5.20;;;;;;;2.04;33.98;101838.13;5030782;28;20076;-77
2023/03/02 04:19:26;;;;;;;9.52;5.60;;;;;;;2.02;33.89;101836.41;5024926;28;20044;-77
2023/03/02 04:22:00;;;;;;;9.65;5.43;;;;;;;2.00;33.98;101832.91;5031817;28;20052;-77
2023/03/02 04:24:28;;;;;;;7.85;4.93;;;;;;;1.98;33.92;101832.97;5033184;28;20393;-77
2023/03/02 04:26:59;;;;;;;7.95;5.35;;;;;;;1.96;33.78;101832.13;5037454;28;20568;-77
2023/03/02 04:29:31;;;;;;;7.95;5.20;;;;;;;1.96;34.07;101834.81;5034093;28;20064;-77
2023/03/02 04:32:00;;;;;;;8.80;5.15;;;;;;;1.94;33.87;101835.81;5039577;28;20051;-76
2023/03/02 04:34:29;;;;;;;8.75;5.10;;;;;;;1.95;33.81;101832.16;5028426;28;20040;-77
2023/03/02 04:36:57;;;;;;;7.32;4.85;;;;;;;1.94;33.86;101835.81;5033192;28;20539;-77
2023/03/02 04:39:26;;;;;;;8.13;5.07;;;;;;;1.94;33.93;101835.81;5047981;28;20037;-77
2023/03/02 04:41:54;;;;;;;7.90;5.00;;;;;;;1.93;33.98;101836.75;5032955;28;20095;-77
2023/03/02 04:44:22;;;;;;;9.32;5.25;;;;;;;1.93;33.82;101834.91;5049955;28;20033;-77
2023/03/02 04:46:51;;;;;;;8.32;5.00;;;;;;;1.93;34.09;101834.91;5034578;28;20777;-77
2023/03/02 04:49:20;;;;;;;8.63;5.65;;;;;;;1.93;34.05;101839.44;5003278;28;20103;-77
2023/03/02 04:51:49;;;;;;;8.40;5.15;;;;;;;1.94;34.09;101833.09;5027667;28;20095;-77
2023/03/02 04:54:19;;;;;;;7.15;4.47;;;;;;;1.93;34.41;101828.63;5032008;28;20045;-77
2023/03/02 04:56:47;;;;;;;8.15;4.80;;;;;;;1.92;33.97;101832.31;5034143;28;20052;-77
2023/03/02 04:59:15;;;;;;;8.98;4.82;;;;;;;1.92;34.10;101832.31;5048107;28;20124;-77
2023/03/02 05:01:43;;;;;;;7.90;5.28;;;;;;;1.91;34.18;101834.13;5050694;28;20048;-77
2023/03/02 05:04:12;;;;;;;8.15;4.88;;;;;;;1.91;34.02;101831.41;5049921;28;20041;-77
2023/03/02 05:06:40;;;;;;;8.90;5.03;;;;;;;1.90;34.11;101826.06;5032976;28;20631;-77
2023/03/02 05:09:08;;;;;;;8.90;5.30;;;;;;;1.90;34.14;101820.66;5031134;28;20049;-77
2023/03/02 05:11:36;;;;;;;9.65;6.28;;;;;;;1.87;34.21;101821.66;5027043;28;20045;-77
2023/03/02 05:14:06;;;;;;;10.48;5.97;;;;;;;1.86;33.96;101825.28;5039577;28;20064;-77
2023/03/02 05:16:36;;;;;;;8.80;5.32;;;;;;;1.83;33.98;101815.50;5050260;28;20044;-77
2023/03/02 05:19:06;;;;;;;9.90;5.90;;;;;;;1.80;34.01;101815.59;5049482;28;20606;-77
2023/03/02 05:21:35;;;;;;;8.88;5.40;;;;;;;1.80;34.11;101822.81;5057602;28;20376;-77
2023/03/02 05:24:04;;;;;;;9.35;5.70;;;;;;;1.75;34.06;101822.09;5059358;28;20368;-77
2023/03/02 05:26:32;;;;;;;8.27;5.80;;;;;;;1.73;33.87;101824.84;5046646;28;20452;-77
2023/03/02 05:29:00;;;;;;;10.00;5.20;;;;;;;1.71;33.82;101809.66;5053731;28;20386;-77
2023/03/02 05:31:33;;;;;;;9.13;5.20;;;;;;;1.69;34.21;101809.69;5033622;28;20167;-77
2023/03/02 05:34:02;;;;;;;8.38;5.25;;;;;;;1.67;34.29;101819.66;5033294;28;20047;-77
2023/03/02 05:36:30;;;;;;;7.88;4.90;;;;;;;1.66;34.14;101817.91;5036256;28;20514;-77
2023/03/02 05:38:59;;;;;;;7.47;4.57;;;;;;;1.67;34.13;101816.94;5048359;28;20120;-77
2023/03/02 05:41:27;;;;;;;8.05;5.15;;;;;;;1.66;34.34;101817.03;5048736;28;20041;-77
2023/03/02 05:43:55;;;;;;;7.43;4.82;;;;;;;1.66;34.21;101820.63;5047755;28;20400;-76
2023/03/02 05:46:23;;;;;;;9.40;4.95;;;;;;;1.67;34.15;101816.09;5048586;28;20099;-77
2023/03/02 05:48:51;;;;;;;8.73;5.68;;;;;;;1.64;33.99;101825.19;5022765;28;20428;-77
2023/03/02 05:51:19;;;;;;;10.00;5.63;;;;;;;1.63;34.32;101830.63;5038766;28;20045;-77
2023/03/02 05:53:47;;;;;;;10.65;6.10;;;;;;;1.61;34.14;101824.41;5047313;28;20374;-77
2023/03/02 05:56:16;;;;;;;8.80;5.78;;;;;;;1.58;34.35;101825.41;5055743;28;20273;-78
2023/03/02 05:58:44;;;;;;;9.68;6.25;;;;;;;1.54;34.00;101826.44;5049451;28;20059;-77
2023/03/02 06:01:11;;;;;;;10.85;5.80;;;;;;;1.56;33.89;101826.38;5050447;28;20037;-78
2023/03/02 06:03:43;;;;;;;9.85;6.28;;;;;;;1.48;34.02;101823.94;5030781;28;20045;-77
2023/03/02 06:06:13;;;;;;;8.88;5.72;;;;;;;1.50;33.95;101824.78;5031668;28;20072;-77
2023/03/02 06:08:42;;;;;;;9.32;5.93;;;;;;;1.48;34.28;101822.13;5034154;28;20076;-77
2023/03/02 06:11:10;;;;;;;8.02;5.40;;;;;;;1.49;33.97;101825.72;5026450;28;20048;-77
2023/03/02 06:13:40;;;;;;;8.45;5.47;;;;;;;1.48;34.16;101823.94;5024829;28;20416;-77
2023/03/02 06:16:08;;;;;;;8.93;5.80;;;;;;;1.47;34.25;101825.75;5031061;28;20067;-77
2023/03/02 06:18:37;;;;;;;7.65;5.10;;;;;;;1.48;34.15;101827.53;5030809;28;20136;-77
2023/03/02 06:25:02;;;;;;;7.35;4.93;;;;;;;1.39;34.34;101835.06;5035128;28;20098;-77
2023/03/02 06:27:30;;;;;;;7.93;5.32;;;;;;;1.44;34.19;101828.56;5050737;28;20041;-77
2023/03/02 06:29:59;;;;;;;9.02;6.10;;;;;;;1.44;34.14;101825.84;5033128;28;20041;-77
2023/03/02 06:32:32;;;;;;;9.23;5.55;;;;;;;1.44;34.15;101833.06;5047970;28;20029;-76
2023/03/02 06:35:00;;;;;;;10.60;5.82;;;;;;;1.39;34.30;101835.94;5031173;28;20389;-77
2023/03/02 06:37:29;;;;;;;9.02;5.53;;;;;;;1.43;34.38;101844.78;5055109;28;20053;-76
2023/03/02 06:39:57;;;;;;;9.02;5.50;;;;;;;1.42;34.36;101830.41;5053136;28;20091;-76
2023/03/02 06:42:26;;;;;;;9.75;5.55;;;;;;;1.45;34.30;101834.84;5045549;28;20055;-76
2023/03/02 06:44:54;;;;;;;9.25;5.72;;;;;;;1.43;34.22;101837.56;5054591;28;20073;-77
2023/03/02 06:47:24;;;;;;;9.65;5.68;;;;;;;1.44;34.17;101823.16;5043741;28;20539;-77
2023/03/02 06:49:52;;;;;;;10.25;5.88;;;;;;;1.43;34.48;101825.91;5029218;28;20416;-76
2023/03/02 06:52:19;;;;;;;9.38;5.57;;;;;;;1.47;34.53;101836.56;5034809;28;20156;-76
2023/03/02 06:54:47;;;;;;;10.05;6.03;;;;;;;1.46;34.51;101840.19;5048938;28;20041;-76
2023/03/02 06:57:15;;;;;;;10.68;5.82;;;;;;;1.51;34.85;101844.56;5042330;28;20471;-76
2023/03/02 06:59:43;;;;;;;9.82;6.03;;;;;;;1.56;35.15;101846.16;5044444;28;20045;-76
2023/03/02 07:02:11;;;;;;;9.27;5.82;;;;;;;1.63;35.34;101845.00;5053844;28;20094;-77
2023/03/02 07:04:40;;;;;;;10.02;6.80;;;;;;;1.71;35.41;101850.13;5029655;28;20040;-76
2023/03/02 07:07:08;;;;;;;8.90;6.20;;;;;;;1.84;35.61;101848.75;5052517;28;20523;-76
2023/03/02 07:09:36;;;;;;;9.80;6.13;;;;;;;1.95;35.67;101851.06;5045848;28;20067;-76
2023/03/02 07:12:04;;;;;;;10.88;6.50;;;;;;;2.06;35.39;101851.56;5031226;28;20051;-76
2023/03/02 07:14:34;;;;;;;9.95;6.25;;;;;;;2.24;35.53;101846.38;5034747;28;20060;-76
2023/03/02 07:17:04;;;;;;;10.23;6.32;;;;;;;2.40;35.31;101848.50;5046787;28;20389;-76
2023/03/02 07:19:32;;;;;;;9.38;6.10;;;;;;;2.56;35.39;101850.56;5032559;28;20493;-76
2023/03/02 07:22:01;;;;;;;8.93;5.97;;;;;;;2.75;35.02;101849.81;5034861;28;20099;-77
2023/03/02 07:24:29;;;;;;;9.25;6.60;;;;;;;2.88;34.98;101851.13;5038016;28;20055;-76
2023/03/02 07:26:56;;;;;;;9.35;6.30;;;;;;;3.04;35.01;101838.75;5053251;28;20147;-77
2023/03/02 07:29:24;;;;;;;10.02;5.75;;;;;;;3.23;34.79;101841.59;5047975;28;20090;-75
2023/03/02 07:31:55;;;;;;;8.90;5.90;;;;;;;3.37;34.94;101837.38;5052941;28;20052;-76
2023/03/02 07:34:24;;;;;;;7.70;5.53;;;;;;;3.56;34.78;101844.72;5051487;28;20041;-76
2023/03/02 07:36:52;;;;;;;8.82;6.05;;;;;;;3.73;34.53;101842.16;5052425;28;20041;-76
2023/03/02 07:39:22;;;;;;;9.30;6.45;;;;;;;3.77;33.52;101850.09;5046031;28;20045;-76
2023/03/02 07:41:49;;;;;;;9.75;5.95;;;;;;;3.96;33.83;101846.59;5052527;28;20045;-76
2023/03/02 07:44:21;;;;;;;10.45;6.47;;;;;;;4.07;33.55;101850.56;5039123;28;20041;-76
2023/03/02 07:46:49;;;;;;;10.15;6.32;;;;;;;4.14;33.42;101848.47;5053630;28;20044;-76
2023/03/02 07:49:17;;;;;;;9.02;6.10;;;;;;;4.31;33.29;101850.38;5053780;28;20115;-75
2023/03/02 07:51:44;;;;;;;9.80;6.68;;;;;;;4.33;32.97;101854.78;5052112;28;20095;-75
2023/03/02 07:54:12;;;;;;;9.02;6.28;;;;;;;4.47;32.87;101857.75;5058610;28;20032;-75
2023/03/02 07:56:41;;;;;;;9.38;6.28;;;;;;;4.57;32.53;101852.78;5057209;28;20132;-75
2023/03/02 07:59:10;;;;;;;8.75;6.07;;;;;;;4.66;32.68;101854.19;5062582;28;20090;-75
2023/03/02 08:01:38;;;;;;;9.13;6.30;;;;;;;4.74;32.51;101857.41;5045551;28;20127;-75
2023/03/02 08:04:06;;;;;;;8.93;6.13;;;;;;;4.84;32.11;101861.44;5045136;28;20037;-75
2023/03/02 08:06:34;;;;;;;10.05;6.05;;;;;;;4.92;31.83;101859.25;5051755;28;20060;-75
2023/03/02 08:09:02;;;;;;;8.98;6.22;;;;;;;4.96;31.45;101862.72;5051056;28;20048;-75
2023/03/02 08:11:30;;;;;;;8.05;5.78;;;;;;;5.04;31.39;101855.06;5053453;28;20512;-75
2023/03/02 08:14:01;;;;;;;10.48;6.18;;;;;;;5.05;30.54;101854.97;5048078;28;20040;-75
2023/03/02 08:16:30;;;;;;;7.82;5.25;;;;;;;5.04;31.07;101860.50;5069345;28;20064;-75
2023/03/02 08:18:57;;;;;;;9.70;6.35;;;;;;;5.05;31.01;101856.81;5037724;28;20103;-75
2023/03/02 08:21:28;;;;;;;10.02;6.88;;;;;;;4.97;30.64;101859.88;5038833;28;20083;-75
2023/03/02 08:23:57;;;;;;;9.57;6.43;;;;;;;4.96;30.69;101866.31;5050928;28;20037;-75
2023/03/02 08:26:25;;;;;;;9.60;6.18;;;;;;;4.91;30.67;101863.78;5031618;28;20443;-75
2023/03/02 08:28:52;;;;;;;10.48;6.00;;;;;;;4.86;30.82;101873.13;5056875;28;20094;-76
2023/03/02 08:31:22;;;;;;;9.98;5.97;;;;;;;4.83;30.40;101866.00;5036650;28;20041;-75
2023/03/02 08:33:49;;;;;;;9.52;6.00;;;;;;;4.83;30.88;101867.81;5057523;28;20115;-76
2023/03/02 08:36:19;;;;;;;11.35;6.55;;;;;;;4.78;30.60;101859.91;5049633;28;20103;-76
2023/03/02 08:38:48;;;;;;;8.63;6.30;;;;;;;4.75;30.69;101864.59;5053150;28;20091;-76
2023/03/02 08:41:19;;;;;;;9.38;5.45;;;;;;;4.76;30.65;101864.53;5035025;28;20052;-75
2023/03/02 08:43:48;;;;;;;9.07;6.10;;;;;;;4.74;30.70;101863.72;5050579;28;20048;-75
2023/03/02 08:46:18;;;;;;;10.45;6.53;;;;;;;4.71;30.90;101855.75;5050865;28;20604;-75
2023/03/02 08:48:50;;;;;;;8.18;5.88;;;;;;;4.75;30.92;101860.06;5044749;28;20068;-75
2023/03/02 08:51:20;;;;;;;8.65;5.97;;;;;;;4.75;30.91;101851.91;5056343;28;20083;-75
2023/03/02 08:53:50;;;;;;;10.50;5.90;;;;;;;4.78;30.85;101859.03;5034502;28;20099;-75
2023/03/02 08:56:20;;;;;;;8.88;5.88;;;;;;;4.82;31.00;101855.22;5048248;28;20198;-75
2023/03/02 08:58:48;;;;;;;9.60;6.10;;;;;;;4.81;31.03;101848.91;5038436;28;20051;-75
2023/03/02 09:01:18;;;;;;;8.10;5.60;;;;;;;4.87;30.94;101850.47;5051672;28;20049;-75
2023/03/02 09:03:48;;;;;;;8.77;5.95;;;;;;;4.89;30.94;101846.69;5051270;28;20052;-75
2023/03/02 09:06:15;;;;;;;10.50;6.47;;;;;;;4.89;30.89;101846.69;5057894;28;20092;-74
2023/03/02 09:08:44;;;;;;;7.88;5.80;;;;;;;4.96;30.96;101841.00;5035912;28;20041;-75
2023/03/02 09:11:12;;;;;;;9.02;5.80;;;;;;;5.02;31.16;101835.28;5051571;28;20045;-75
2023/03/02 09:13:40;;;;;;;9.02;5.78;;;;;;;5.03;30.93;101840.63;5069568;28;20056;-75
2023/03/02 09:16:08;;;;;;;10.73;6.07;;;;;;;5.09;30.93;101834.88;5043434;28;20053;-75
2023/03/02 09:18:36;;;;;;;10.40;6.82;;;;;;;5.11;30.88;101835.72;5049888;28;20091;-75
2023/03/02 09:21:06;;;;;;;8.18;5.43;;;;;;;5.18;30.59;101826.34;5051312;28;20048;-75
2023/03/02 09:23:35;;;;;;;8.07;5.70;;;;;;;5.24;30.70;101828.72;5054543;28;20036;-75
2023/03/02 09:26:03;;;;;;;10.02;6.50;;;;;;;5.24;30.47;101826.03;5069789;28;20099;-76
2023/03/02 09:28:32;;;;;;;9.55;5.85;;;;;;;5.32;30.51;101822.91;5052139;28;20080;-75
2023/03/02 09:31:03;;;;;;;8.60;5.95;;;;;;;5.36;30.54;101812.78;5051631;28;20095;-75
2023/03/02 09:33:32;;;;;;;9.73;5.90;;;;;;;5.45;30.76;101818.66;5039480;28;20600;-75
2023/03/02 09:36:01;;;;;;;9.45;6.20;;;;;;;5.53;30.75;101818.25;5014696;28;20552;-75
2023/03/02 09:38:30;;;;;;;7.82;5.63;;;;;;;5.61;30.56;101819.63;5050288;28;20424;-75
2023/03/02 09:41:19;;;;;;;9.18;5.40;;;;;;;5.74;29.91;101822.56;5048991;28;20095;-75
2023/03/02 09:43:57;;;;;;;7.82;5.22;;;;;;;5.84;30.29;101807.53;5033895;28;20072;-75
2023/03/02 09:46:33;;;;;;;8.50;5.75;;;;;;;5.97;30.59;101824.06;5047766;28;20045;-75
2023/03/02 09:49:14;;;;;;;8.55;5.53;;;;;;;6.11;30.21;101813.34;5046515;28;20051;-75
2023/03/02 09:51:47;;;;;;;9.55;5.47;;;;;;;6.24;30.41;101814.44;5052030;28;20150;-75
2023/03/02 09:54:22;;;;;;;7.75;5.63;;;;;;;6.33;30.24;101813.94;5032675;28;20128;-76
2023/03/02 09:56:56;;;;;;;12.32;6.47;;;;;;;6.49;30.26;101813.09;5031806;28;20071;-76
2023/03/02 09:59:26;;;;;;;;;;;;;;;6.28;29.84;101807.00;5040821;28;20471;-76
2023/03/02 10:02:00;;;;;;;9.45;6.03;;;;;;;6.64;29.94;101807.66;5036973;28;19928;-76
2023/03/02 10:04:30;;;;;;;10.90;6.60;;;;;;;6.75;29.84;101807.97;5043902;28;20048;-76
2023/03/02 10:07:05;;;;;;;10.77;5.75;;;;;;;6.83;28.73;101799.38;5036519;28;20281;-76
2023/03/02 10:09:35;;;;;;;9.98;6.70;;;;;;;6.90;29.53;101814.38;5060480;28;20131;-76
2023/03/02 10:12:21;;;;;;;10.65;6.00;;;;;;;7.02;29.02;101804.66;5028759;28;20048;-75
2023/03/02 10:14:55;;;;;;;7.78;5.47;;;;;;;7.08;29.38;101796.13;5042803;28;20071;-76
2023/03/02 10:17:39;;;;;;;10.57;6.20;;;;;;;7.12;28.41;101801.28;5041418;28;20045;-76
2023/03/02 10:20:17;;;;;;;7.72;5.20;;;;;;;7.24;28.51;101797.00;5030899;28;20053;-76
2023/03/02 10:22:48;;;;;;;8.38;5.75;;;;;;;7.31;29.58;101795.66;5044320;28;20074;-76
2023/03/02 10:25:30;;;;;;;8.60;5.60;;;;;;;7.41;28.79;101793.25;5049882;28;20041;-76
2023/03/02 10:28:02;;;;;;;8.85;5.50;;;;;;;7.43;28.77;101791.34;5049013;28;20044;-76
2023/03/02 10:30:35;;;;;;;8.18;5.10;;;;;;;7.54;29.14;101802.44;5027522;28;20408;-76
2023/03/02 10:33:10;;;;;;;8.95;5.50;;;;;;;7.61;29.33;101792.94;5053850;28;20516;-76
2023/03/02 10:35:38;;;;;;;9.07;5.65;;;;;;;7.69;29.38;101792.47;5042073;28;20136;-75
2023/03/02 10:38:13;;;;;;;11.20;6.35;;;;;;;7.79;28.42;101780.03;5030360;28;20094;-75
2023/03/02 10:40:45;;;;;;;9.75;6.05;;;;;;;7.83;27.95;101787.94;5047423;28;20416;-75
2023/03/02 10:43:18;;;;;;;7.88;5.45;;;;;;;7.90;28.60;101792.03;5024939;28;20064;-75
2023/03/02 10:45:46;;;;;;;;;;;;;;;7.72;28.93;101778.66;5030477;28;20486;-76
2023/03/02 10:48:15;;;;;;;7.72;5.10;;;;;;;8.02;29.49;101787.66;5042884;28;19960;-76
2023/03/02 10:50:44;;;;;;;8.55;5.65;;;;;;;8.14;29.02;101777.88;5047100;28;20526;-76
2023/03/02 10:53:17;;;;;;;9.35;5.15;;;;;;;8.23;27.90;101782.78;5030638;28;20393;-76
2023/03/02 10:55:49;;;;;;;9.45;5.68;;;;;;;8.30;28.85;101779.56;5048228;28;20056;-76
2023/03/02 10:58:24;;;;;;;8.52;6.00;;;;;;;8.38;27.85;101781.78;5048777;28;20052;-76
2023/03/02 11:01:00;;;;;;;9.27;6.00;;;;;;;8.41;27.64;101783.47;5030361;28;20501;-76
2023/03/02 11:03:29;;;;;;;9.63;6.30;;;;;;;8.42;28.08;101777.91;5049487;28;20045;-76
2023/03/02 11:05:57;;;;;;;9.73;6.60;;;;;;;8.47;27.98;101774.88;5030789;28;20045;-75
2023/03/02 11:08:27;;;;;;;10.38;6.18;;;;;;;8.50;27.81;101766.50;5035701;28;20103;-75
2023/03/02 11:10:59;;;;;;;10.55;7.03;;;;;;;8.46;26.80;101771.25;5050859;28;20045;-75
2023/03/02 11:13:31;;;;;;;9.88;6.10;;;;;;;8.47;27.15;101770.28;5032430;28;20136;-75
2023/03/02 11:16:00;;;;;;;9.55;7.30;;;;;;;8.37;27.01;101763.66;4992120;28;20419;-75
2023/03/02 11:18:32;;;;;;;8.75;6.50;;;;;;;8.42;26.99;101760.66;5034366;28;20095;-76
2023/03/02 11:21:04;;;;;;;10.32;6.32;;;;;;;8.41;27.23;101767.09;5038712;28;20053;-76
2023/03/02 11:23:45;;;;;;;9.25;6.68;;;;;;;8.43;26.43;101766.00;5039221;28;20045;-75
2023/03/02 11:26:21;;;;;;;8.70;6.05;;;;;;;8.45;26.13;101768.63;5054884;28;20037;-76
2023/03/02 11:28:58;;;;;;;10.48;6.88;;;;;;;8.42;26.76;101768.84;5052941;28;20056;-75
2023/03/02 11:31:36;;;;;;;9.02;5.90;;;;;;;8.47;26.39;101756.66;5037683;28;20103;-76
2023/03/02 11:34:20;;;;;;;8.20;5.43;;;;;;;8.51;27.00;101754.59;5046196;28;20049;-75
2023/03/02 11:37:01;;;;;;;7.85;5.65;;;;;;;8.56;26.73;101747.00;5033933;28;20519;-75
2023/03/02 11:39:40;;;;;;;10.20;5.72;;;;;;;8.56;26.14;101749.72;5055055;28;20047;-76
2023/03/02 11:42:26;;;;;;;7.83;5.13;;;;;;;8.61;26.59;101750.28;5037963;28;20080;-75
2023/03/02 11:44:55;;;;;;;10.55;6.35;;;;;;;8.66;27.23;101751.75;5044933;28;20307;-76
2023/03/02 11:47:23;;;;;;;10.18;6.28;;;;;;;8.68;27.14;101746.19;5043162;28;20508;-75
2023/03/02 11:49:54;;;;;;;9.35;5.80;;;;;;;8.74;26.57;101742.19;5049132;28;20049;-76